sensor_id;sensor_type;location;lat;lon;timestamp;temperature;humidity
28374;DHT22;15616;40.148;-102.718;2023-06-22T00:02:03;26.10;51.00
28374;DHT22;15616;40.148;-102.718;2023-06-22T00:04:29;26.10;51.00
28374;DHT22;15616;40.148;-102.718;2023-06-22T00:06:54;26.00;50.90
28374;DHT22;15616;40.148;-102.718;2023-06-22T00:09:20;26.00;51.00
28374;DHT22;15616;40.148;-102.718;2023-06-22T00:11:46;26.00;51.10
28374;DHT22;15616;40.148;-102.718;2023-06-22T00:14:11;26.00;51.10
28374;DHT22;15616;40.148;-102.718;2023-06-22T00:16:37;26.00;51.00
28374;DHT22;15616;40.148;-102.718;2023-06-22T00:19:03;26.00;51.10
28374;DHT22;15616;40.148;-102.718;2023-06-22T00:21:29;26.00;51.10
28374;DHT22;15616;40.148;-102.718;2023-06-22T00:23:55;26.00;51.10
28374;DHT22;15616;40.148;-102.718;2023-06-22T00:26:22;26.00;51.10
28374;DHT22;15616;40.148;-102.718;2023-06-22T00:28:48;26.00;51.20
28374;DHT22;15616;40.148;-102.718;2023-06-22T00:31:14;25.90;51.10
28374;DHT22;15616;40.148;-102.718;2023-06-22T00:33:40;25.90;51.20
28374;DHT22;15616;40.148;-102.718;2023-06-22T00:36:05;25.90;51.20
28374;DHT22;15616;40.148;-102.718;2023-06-22T00:38:33;25.90;51.20
28374;DHT22;15616;40.148;-102.718;2023-06-22T00:40:59;25.90;51.20
28374;DHT22;15616;40.148;-102.718;2023-06-22T00:43:25;25.90;51.20
28374;DHT22;15616;40.148;-102.718;2023-06-22T00:45:50;25.90;51.20
28374;DHT22;15616;40.148;-102.718;2023-06-22T00:48:16;25.90;51.20
28374;DHT22;15616;40.148;-102.718;2023-06-22T00:50:42;25.90;51.20
28374;DHT22;15616;40.148;-102.718;2023-06-22T00:53:08;25.90;51.20
28374;DHT22;15616;40.148;-102.718;2023-06-22T00:55:35;25.90;51.20
28374;DHT22;15616;40.148;-102.718;2023-06-22T00:58:03;25.90;51.20
28374;DHT22;15616;40.148;-102.718;2023-06-22T01:00:31;25.90;51.20
28374;DHT22;15616;40.148;-102.718;2023-06-22T01:02:58;25.90;51.20
28374;DHT22;15616;40.148;-102.718;2023-06-22T01:05:23;25.90;51.20
28374;DHT22;15616;40.148;-102.718;2023-06-22T01:10:25;25.90;51.20
28374;DHT22;15616;40.148;-102.718;2023-06-22T01:12:53;25.90;51.20
28374;DHT22;15616;40.148;-102.718;2023-06-22T01:15:36;25.90;51.30
28374;DHT22;15616;40.148;-102.718;2023-06-22T01:18:04;25.90;51.30
28374;DHT22;15616;40.148;-102.718;2023-06-22T01:20:30;25.90;51.30
28374;DHT22;15616;40.148;-102.718;2023-06-22T01:26:02;25.90;51.30
28374;DHT22;15616;40.148;-102.718;2023-06-22T01:28:50;25.90;51.20
28374;DHT22;15616;40.148;-102.718;2023-06-22T01:31:19;25.90;51.30
28374;DHT22;15616;40.148;-102.718;2023-06-22T01:33:51;25.90;52.00
28374;DHT22;15616;40.148;-102.718;2023-06-22T01:36:17;25.90;51.20
28374;DHT22;15616;40.148;-102.718;2023-06-22T01:38:43;25.90;51.30
28374;DHT22;15616;40.148;-102.718;2023-06-22T01:41:10;25.90;51.30
28374;DHT22;15616;40.148;-102.718;2023-06-22T01:43:36;25.90;51.30
28374;DHT22;15616;40.148;-102.718;2023-06-22T01:46:02;25.90;51.30
28374;DHT22;15616;40.148;-102.718;2023-06-22T01:48:28;25.90;51.20
28374;DHT22;15616;40.148;-102.718;2023-06-22T01:50:54;25.90;51.30
28374;DHT22;15616;40.148;-102.718;2023-06-22T01:53:23;25.90;51.30
28374;DHT22;15616;40.148;-102.718;2023-06-22T01:55:49;25.90;51.20
28374;DHT22;15616;40.148;-102.718;2023-06-22T01:58:15;25.90;51.20
28374;DHT22;15616;40.148;-102.718;2023-06-22T02:00:43;25.90;51.20
28374;DHT22;15616;40.148;-102.718;2023-06-22T02:03:20;25.90;51.20
28374;DHT22;15616;40.148;-102.718;2023-06-22T02:05:51;25.90;51.30
28374;DHT22;15616;40.148;-102.718;2023-06-22T02:08:22;25.80;51.30
28374;DHT22;15616;40.148;-102.718;2023-06-22T02:10:49;25.90;51.30
28374;DHT22;15616;40.148;-102.718;2023-06-22T02:13:16;25.80;51.20
28374;DHT22;15616;40.148;-102.718;2023-06-22T02:15:42;25.90;51.30
28374;DHT22;15616;40.148;-102.718;2023-06-22T02:18:08;25.80;51.20
28374;DHT22;15616;40.148;-102.718;2023-06-22T02:20:37;25.90;51.30
28374;DHT22;15616;40.148;-102.718;2023-06-22T02:23:03;25.80;51.30
28374;DHT22;15616;40.148;-102.718;2023-06-22T02:25:28;25.80;51.30
28374;DHT22;15616;40.148;-102.718;2023-06-22T02:27:54;25.80;51.30
28374;DHT22;15616;40.148;-102.718;2023-06-22T02:30:20;25.80;51.30
28374;DHT22;15616;40.148;-102.718;2023-06-22T02:32:45;25.80;51.40
28374;DHT22;15616;40.148;-102.718;2023-06-22T02:35:11;25.80;51.30
28374;DHT22;15616;40.148;-102.718;2023-06-22T02:37:37;25.80;51.30
28374;DHT22;15616;40.148;-102.718;2023-06-22T02:40:05;25.80;51.30
28374;DHT22;15616;40.148;-102.718;2023-06-22T02:42:31;25.80;51.30
28374;DHT22;15616;40.148;-102.718;2023-06-22T02:44:57;25.80;51.40
28374;DHT22;15616;40.148;-102.718;2023-06-22T02:47:22;25.80;51.50
28374;DHT22;15616;40.148;-102.718;2023-06-22T02:49:48;25.70;51.50
28374;DHT22;15616;40.148;-102.718;2023-06-22T02:52:14;25.70;51.40
28374;DHT22;15616;40.148;-102.718;2023-06-22T02:54:40;25.70;51.40
28374;DHT22;15616;40.148;-102.718;2023-06-22T02:57:05;25.70;51.40
28374;DHT22;15616;40.148;-102.718;2023-06-22T02:59:31;25.80;51.50
28374;DHT22;15616;40.148;-102.718;2023-06-22T03:01:57;25.70;51.40
28374;DHT22;15616;40.148;-102.718;2023-06-22T03:04:22;25.80;51.40
28374;DHT22;15616;40.148;-102.718;2023-06-22T03:06:48;25.80;51.40
28374;DHT22;15616;40.148;-102.718;2023-06-22T03:09:16;25.80;51.40
28374;DHT22;15616;40.148;-102.718;2023-06-22T03:11:42;25.80;51.50
28374;DHT22;15616;40.148;-102.718;2023-06-22T03:14:08;25.80;51.50
28374;DHT22;15616;40.148;-102.718;2023-06-22T03:16:34;25.70;51.50
28374;DHT22;15616;40.148;-102.718;2023-06-22T03:18:59;25.70;51.50
28374;DHT22;15616;40.148;-102.718;2023-06-22T03:21:28;25.70;51.50
28374;DHT22;15616;40.148;-102.718;2023-06-22T03:23:54;25.70;51.40
28374;DHT22;15616;40.148;-102.718;2023-06-22T03:26:20;25.70;51.40
28374;DHT22;15616;40.148;-102.718;2023-06-22T03:28:46;25.70;51.40
28374;DHT22;15616;40.148;-102.718;2023-06-22T03:31:12;25.80;51.40
28374;DHT22;15616;40.148;-102.718;2023-06-22T03:33:37;25.80;51.40
28374;DHT22;15616;40.148;-102.718;2023-06-22T03:36:03;25.80;51.40
28374;DHT22;15616;40.148;-102.718;2023-06-22T03:38:29;25.80;51.40
28374;DHT22;15616;40.148;-102.718;2023-06-22T03:40:55;25.70;51.40
28374;DHT22;15616;40.148;-102.718;2023-06-22T03:43:20;25.70;51.40
28374;DHT22;15616;40.148;-102.718;2023-06-22T03:45:46;25.70;51.50
28374;DHT22;15616;40.148;-102.718;2023-06-22T03:48:12;25.70;51.50
28374;DHT22;15616;40.148;-102.718;2023-06-22T03:50:38;25.70;51.50
28374;DHT22;15616;40.148;-102.718;2023-06-22T03:53:03;25.70;51.50
28374;DHT22;15616;40.148;-102.718;2023-06-22T03:55:29;25.70;51.50
28374;DHT22;15616;40.148;-102.718;2023-06-22T03:57:55;25.70;51.50
28374;DHT22;15616;40.148;-102.718;2023-06-22T04:00:25;25.70;51.60
28374;DHT22;15616;40.148;-102.718;2023-06-22T04:02:51;25.70;51.50
28374;DHT22;15616;40.148;-102.718;2023-06-22T04:05:17;25.70;51.50
28374;DHT22;15616;40.148;-102.718;2023-06-22T04:07:45;25.70;51.50
28374;DHT22;15616;40.148;-102.718;2023-06-22T04:10:11;25.70;51.50
28374;DHT22;15616;40.148;-102.718;2023-06-22T04:12:36;25.70;51.60
28374;DHT22;15616;40.148;-102.718;2023-06-22T04:15:02;25.70;51.60
28374;DHT22;15616;40.148;-102.718;2023-06-22T04:17:28;25.60;51.50
28374;DHT22;15616;40.148;-102.718;2023-06-22T04:19:54;25.60;51.50
28374;DHT22;15616;40.148;-102.718;2023-06-22T04:22:19;25.60;51.60
28374;DHT22;15616;40.148;-102.718;2023-06-22T04:24:45;25.60;51.60
28374;DHT22;15616;40.148;-102.718;2023-06-22T04:27:11;25.60;51.60
28374;DHT22;15616;40.148;-102.718;2023-06-22T04:29:37;25.60;51.60
28374;DHT22;15616;40.148;-102.718;2023-06-22T04:32:03;25.60;51.60
28374;DHT22;15616;40.148;-102.718;2023-06-22T04:34:31;25.50;51.60
28374;DHT22;15616;40.148;-102.718;2023-06-22T04:36:57;25.50;51.60
28374;DHT22;15616;40.148;-102.718;2023-06-22T04:39:23;25.50;51.70
28374;DHT22;15616;40.148;-102.718;2023-06-22T04:41:49;25.50;51.60
28374;DHT22;15616;40.148;-102.718;2023-06-22T04:44:17;25.50;51.70
28374;DHT22;15616;40.148;-102.718;2023-06-22T04:46:53;25.60;51.70
28374;DHT22;15616;40.148;-102.718;2023-06-22T04:49:20;25.60;51.80
28374;DHT22;15616;40.148;-102.718;2023-06-22T04:51:46;25.50;51.80
28374;DHT22;15616;40.148;-102.718;2023-06-22T04:54:11;25.50;51.80
28374;DHT22;15616;40.148;-102.718;2023-06-22T04:56:37;25.60;51.90
28374;DHT22;15616;40.148;-102.718;2023-06-22T04:59:06;25.50;51.80
28374;DHT22;15616;40.148;-102.718;2023-06-22T05:01:33;25.60;51.90
28374;DHT22;15616;40.148;-102.718;2023-06-22T05:04:00;25.60;51.90
28374;DHT22;15616;40.148;-102.718;2023-06-22T05:06:27;25.60;51.90
28374;DHT22;15616;40.148;-102.718;2023-06-22T05:08:56;25.60;51.90
28374;DHT22;15616;40.148;-102.718;2023-06-22T05:11:23;25.60;51.90
28374;DHT22;15616;40.148;-102.718;2023-06-22T05:13:49;25.60;51.90
28374;DHT22;15616;40.148;-102.718;2023-06-22T05:16:15;25.60;51.90
28374;DHT22;15616;40.148;-102.718;2023-06-22T05:18:41;25.60;51.90
28374;DHT22;15616;40.148;-102.718;2023-06-22T05:21:07;25.60;51.80
28374;DHT22;15616;40.148;-102.718;2023-06-22T05:23:33;25.60;51.80
28374;DHT22;15616;40.148;-102.718;2023-06-22T05:25:58;25.60;51.80
28374;DHT22;15616;40.148;-102.718;2023-06-22T05:28:24;25.60;51.80
28374;DHT22;15616;40.148;-102.718;2023-06-22T05:30:50;25.60;51.70
28374;DHT22;15616;40.148;-102.718;2023-06-22T05:33:16;25.60;51.60
28374;DHT22;15616;40.148;-102.718;2023-06-22T05:35:41;25.60;51.60
28374;DHT22;15616;40.148;-102.718;2023-06-22T05:38:07;25.70;51.60
28374;DHT22;15616;40.148;-102.718;2023-06-22T05:40:33;25.70;51.50
28374;DHT22;15616;40.148;-102.718;2023-06-22T05:42:58;25.70;51.50
28374;DHT22;15616;40.148;-102.718;2023-06-22T05:45:26;25.70;51.40
28374;DHT22;15616;40.148;-102.718;2023-06-22T05:47:51;25.70;51.40
28374;DHT22;15616;40.148;-102.718;2023-06-22T05:50:17;25.80;51.40
28374;DHT22;15616;40.148;-102.718;2023-06-22T05:52:43;25.80;51.40
28374;DHT22;15616;40.148;-102.718;2023-06-22T05:55:08;25.70;51.40
28374;DHT22;15616;40.148;-102.718;2023-06-22T05:57:34;25.80;51.40
28374;DHT22;15616;40.148;-102.718;2023-06-22T06:00:00;25.80;51.40
28374;DHT22;15616;40.148;-102.718;2023-06-22T06:02:26;25.80;51.40
28374;DHT22;15616;40.148;-102.718;2023-06-22T06:04:51;25.80;51.40
28374;DHT22;15616;40.148;-102.718;2023-06-22T06:07:18;25.80;51.40
28374;DHT22;15616;40.148;-102.718;2023-06-22T06:09:44;25.80;51.40
28374;DHT22;15616;40.148;-102.718;2023-06-22T06:12:09;25.80;51.30
28374;DHT22;15616;40.148;-102.718;2023-06-22T06:14:35;25.80;51.40
28374;DHT22;15616;40.148;-102.718;2023-06-22T06:17:01;25.80;51.50
28374;DHT22;15616;40.148;-102.718;2023-06-22T06:19:27;25.80;51.50
28374;DHT22;15616;40.148;-102.718;2023-06-22T06:21:52;25.80;51.50
28374;DHT22;15616;40.148;-102.718;2023-06-22T06:24:18;25.80;51.40
28374;DHT22;15616;40.148;-102.718;2023-06-22T06:26:44;25.80;51.40
28374;DHT22;15616;40.148;-102.718;2023-06-22T06:29:10;25.80;51.40
28374;DHT22;15616;40.148;-102.718;2023-06-22T06:31:35;25.80;51.40
28374;DHT22;15616;40.148;-102.718;2023-06-22T06:34:01;25.80;51.40
28374;DHT22;15616;40.148;-102.718;2023-06-22T06:36:27;25.90;51.40
28374;DHT22;15616;40.148;-102.718;2023-06-22T06:38:53;25.80;51.40
28374;DHT22;15616;40.148;-102.718;2023-06-22T06:41:19;25.80;51.40
28374;DHT22;15616;40.148;-102.718;2023-06-22T06:43:45;25.90;51.40
28374;DHT22;15616;40.148;-102.718;2023-06-22T06:46:10;25.90;51.50
28374;DHT22;15616;40.148;-102.718;2023-06-22T06:48:36;25.80;51.40
28374;DHT22;15616;40.148;-102.718;2023-06-22T06:51:02;25.80;51.50
28374;DHT22;15616;40.148;-102.718;2023-06-22T06:53:28;25.80;51.50
28374;DHT22;15616;40.148;-102.718;2023-06-22T06:55:54;25.80;51.50
28374;DHT22;15616;40.148;-102.718;2023-06-22T06:58:20;25.80;51.50
28374;DHT22;15616;40.148;-102.718;2023-06-22T07:00:45;25.90;51.50
28374;DHT22;15616;40.148;-102.718;2023-06-22T07:03:11;25.90;51.50
28374;DHT22;15616;40.148;-102.718;2023-06-22T07:05:37;25.80;51.50
28374;DHT22;15616;40.148;-102.718;2023-06-22T07:08:03;25.80;51.50
28374;DHT22;15616;40.148;-102.718;2023-06-22T07:10:29;25.90;51.50
28374;DHT22;15616;40.148;-102.718;2023-06-22T07:12:54;25.80;51.50
28374;DHT22;15616;40.148;-102.718;2023-06-22T07:15:20;25.80;51.50
28374;DHT22;15616;40.148;-102.718;2023-06-22T07:17:46;25.80;51.60
28374;DHT22;15616;40.148;-102.718;2023-06-22T07:20:11;25.90;51.70
28374;DHT22;15616;40.148;-102.718;2023-06-22T07:22:38;25.80;51.60
28374;DHT22;15616;40.148;-102.718;2023-06-22T07:25:03;25.90;51.60
28374;DHT22;15616;40.148;-102.718;2023-06-22T07:27:38;25.90;51.60
28374;DHT22;15616;40.148;-102.718;2023-06-22T07:30:06;25.90;51.50
28374;DHT22;15616;40.148;-102.718;2023-06-22T07:32:32;25.90;51.50
28374;DHT22;15616;40.148;-102.718;2023-06-22T07:34:57;25.90;51.50
28374;DHT22;15616;40.148;-102.718;2023-06-22T07:37:23;25.90;51.40
28374;DHT22;15616;40.148;-102.718;2023-06-22T07:39:49;25.90;51.50
28374;DHT22;15616;40.148;-102.718;2023-06-22T07:42:19;25.90;51.50
28374;DHT22;15616;40.148;-102.718;2023-06-22T07:44:44;25.90;51.50
28374;DHT22;15616;40.148;-102.718;2023-06-22T07:47:10;25.90;51.50
28374;DHT22;15616;40.148;-102.718;2023-06-22T07:49:36;25.90;51.50
28374;DHT22;15616;40.148;-102.718;2023-06-22T07:52:01;25.90;51.50
28374;DHT22;15616;40.148;-102.718;2023-06-22T07:54:27;25.90;51.40
28374;DHT22;15616;40.148;-102.718;2023-06-22T07:56:53;25.90;51.50
28374;DHT22;15616;40.148;-102.718;2023-06-22T07:59:19;25.90;51.50
28374;DHT22;15616;40.148;-102.718;2023-06-22T08:01:44;25.80;51.50
28374;DHT22;15616;40.148;-102.718;2023-06-22T08:04:10;25.90;51.50
28374;DHT22;15616;40.148;-102.718;2023-06-22T08:06:35;25.90;51.50
28374;DHT22;15616;40.148;-102.718;2023-06-22T08:09:01;25.90;51.40
28374;DHT22;15616;40.148;-102.718;2023-06-22T08:11:27;25.90;51.50
28374;DHT22;15616;40.148;-102.718;2023-06-22T08:13:53;25.80;51.50
28374;DHT22;15616;40.148;-102.718;2023-06-22T08:16:21;25.80;51.60
28374;DHT22;15616;40.148;-102.718;2023-06-22T08:18:47;25.90;51.70
28374;DHT22;15616;40.148;-102.718;2023-06-22T08:21:12;25.90;51.70
28374;DHT22;15616;40.148;-102.718;2023-06-22T08:23:38;25.80;51.60
28374;DHT22;15616;40.148;-102.718;2023-06-22T08:26:04;25.90;51.70
28374;DHT22;15616;40.148;-102.718;2023-06-22T08:28:29;25.90;51.70
28374;DHT22;15616;40.148;-102.718;2023-06-22T08:30:55;25.90;51.70
28374;DHT22;15616;40.148;-102.718;2023-06-22T08:33:21;25.90;51.80
28374;DHT22;15616;40.148;-102.718;2023-06-22T08:35:49;25.90;51.80
28374;DHT22;15616;40.148;-102.718;2023-06-22T08:38:15;25.90;51.90
28374;DHT22;15616;40.148;-102.718;2023-06-22T08:40:44;25.80;52.00
28374;DHT22;15616;40.148;-102.718;2023-06-22T08:43:09;25.80;52.00
28374;DHT22;15616;40.148;-102.718;2023-06-22T08:45:35;25.80;52.10
28374;DHT22;15616;40.148;-102.718;2023-06-22T08:48:01;25.80;52.10
28374;DHT22;15616;40.148;-102.718;2023-06-22T08:50:27;25.90;52.10
28374;DHT22;15616;40.148;-102.718;2023-06-22T08:52:52;25.90;52.10
28374;DHT22;15616;40.148;-102.718;2023-06-22T08:55:18;25.90;52.10
28374;DHT22;15616;40.148;-102.718;2023-06-22T08:57:44;25.90;52.10
28374;DHT22;15616;40.148;-102.718;2023-06-22T09:00:10;25.90;52.00
28374;DHT22;15616;40.148;-102.718;2023-06-22T09:02:43;25.90;52.10
28374;DHT22;15616;40.148;-102.718;2023-06-22T09:05:09;26.00;52.20
28374;DHT22;15616;40.148;-102.718;2023-06-22T09:07:35;25.90;52.10
28374;DHT22;15616;40.148;-102.718;2023-06-22T09:10:00;25.90;52.20
28374;DHT22;15616;40.148;-102.718;2023-06-22T09:12:26;25.90;52.20
28374;DHT22;15616;40.148;-102.718;2023-06-22T09:14:53;25.90;52.30
28374;DHT22;15616;40.148;-102.718;2023-06-22T09:17:18;25.90;52.40
28374;DHT22;15616;40.148;-102.718;2023-06-22T09:19:44;25.90;52.40
28374;DHT22;15616;40.148;-102.718;2023-06-22T09:22:10;25.90;52.50
28374;DHT22;15616;40.148;-102.718;2023-06-22T09:24:35;25.90;52.50
28374;DHT22;15616;40.148;-102.718;2023-06-22T09:27:01;25.90;52.50
28374;DHT22;15616;40.148;-102.718;2023-06-22T09:29:27;25.90;52.60
28374;DHT22;15616;40.148;-102.718;2023-06-22T09:31:52;25.90;52.60
28374;DHT22;15616;40.148;-102.718;2023-06-22T09:34:21;25.90;52.60
28374;DHT22;15616;40.148;-102.718;2023-06-22T09:36:47;25.90;52.70
28374;DHT22;15616;40.148;-102.718;2023-06-22T09:39:12;25.90;52.70
28374;DHT22;15616;40.148;-102.718;2023-06-22T09:41:38;25.90;52.70
28374;DHT22;15616;40.148;-102.718;2023-06-22T09:44:04;25.90;52.70
28374;DHT22;15616;40.148;-102.718;2023-06-22T09:46:30;25.90;52.80
28374;DHT22;15616;40.148;-102.718;2023-06-22T09:48:55;25.90;52.80
28374;DHT22;15616;40.148;-102.718;2023-06-22T09:51:22;25.90;52.80
28374;DHT22;15616;40.148;-102.718;2023-06-22T09:53:49;25.90;52.70
28374;DHT22;15616;40.148;-102.718;2023-06-22T09:56:15;25.90;52.80
28374;DHT22;15616;40.148;-102.718;2023-06-22T09:58:44;25.90;52.80
28374;DHT22;15616;40.148;-102.718;2023-06-22T10:01:12;25.90;52.90
28374;DHT22;15616;40.148;-102.718;2023-06-22T10:03:41;25.90;52.90
28374;DHT22;15616;40.148;-102.718;2023-06-22T10:06:07;25.90;52.90
28374;DHT22;15616;40.148;-102.718;2023-06-22T10:08:34;25.90;52.80
28374;DHT22;15616;40.148;-102.718;2023-06-22T10:10:59;25.90;52.80
28374;DHT22;15616;40.148;-102.718;2023-06-22T10:13:25;26.00;52.70
28374;DHT22;15616;40.148;-102.718;2023-06-22T10:15:51;26.00;52.70
28374;DHT22;15616;40.148;-102.718;2023-06-22T10:18:17;26.00;52.70
28374;DHT22;15616;40.148;-102.718;2023-06-22T10:20:43;26.00;52.70
28374;DHT22;15616;40.148;-102.718;2023-06-22T10:23:09;26.00;52.70
28374;DHT22;15616;40.148;-102.718;2023-06-22T10:25:35;26.00;52.70
28374;DHT22;15616;40.148;-102.718;2023-06-22T10:28:00;25.90;52.70
28374;DHT22;15616;40.148;-102.718;2023-06-22T10:30:26;25.90;52.70
28374;DHT22;15616;40.148;-102.718;2023-06-22T10:32:52;25.90;52.70
28374;DHT22;15616;40.148;-102.718;2023-06-22T10:35:17;25.90;52.70
28374;DHT22;15616;40.148;-102.718;2023-06-22T10:37:43;26.00;52.70
28374;DHT22;15616;40.148;-102.718;2023-06-22T10:40:10;26.00;52.70
28374;DHT22;15616;40.148;-102.718;2023-06-22T10:42:36;26.00;52.70
28374;DHT22;15616;40.148;-102.718;2023-06-22T10:45:01;25.90;52.70
28374;DHT22;15616;40.148;-102.718;2023-06-22T10:47:28;25.90;52.70
28374;DHT22;15616;40.148;-102.718;2023-06-22T10:49:53;26.00;52.70
28374;DHT22;15616;40.148;-102.718;2023-06-22T10:52:19;26.00;52.70
28374;DHT22;15616;40.148;-102.718;2023-06-22T10:54:45;26.00;52.60
28374;DHT22;15616;40.148;-102.718;2023-06-22T10:57:10;26.00;52.60
28374;DHT22;15616;40.148;-102.718;2023-06-22T10:59:36;26.00;52.50
28374;DHT22;15616;40.148;-102.718;2023-06-22T11:02:02;26.10;52.70
28374;DHT22;15616;40.148;-102.718;2023-06-22T11:04:27;26.00;52.60
28374;DHT22;15616;40.148;-102.718;2023-06-22T11:06:53;26.10;52.60
28374;DHT22;15616;40.148;-102.718;2023-06-22T11:09:19;26.00;52.50
28374;DHT22;15616;40.148;-102.718;2023-06-22T11:11:47;26.00;52.60
28374;DHT22;15616;40.148;-102.718;2023-06-22T11:14:12;26.00;52.60
28374;DHT22;15616;40.148;-102.718;2023-06-22T11:16:38;26.00;52.60
28374;DHT22;15616;40.148;-102.718;2023-06-22T11:19:04;26.00;52.60
28374;DHT22;15616;40.148;-102.718;2023-06-22T11:21:30;26.00;52.60
28374;DHT22;15616;40.148;-102.718;2023-06-22T11:23:57;26.10;52.70
28374;DHT22;15616;40.148;-102.718;2023-06-22T11:26:22;26.00;52.60
28374;DHT22;15616;40.148;-102.718;2023-06-22T11:28:48;26.00;52.60
28374;DHT22;15616;40.148;-102.718;2023-06-22T11:31:14;26.00;52.60
28374;DHT22;15616;40.148;-102.718;2023-06-22T11:33:40;26.00;52.50
28374;DHT22;15616;40.148;-102.718;2023-06-22T11:36:05;26.00;52.60
28374;DHT22;15616;40.148;-102.718;2023-06-22T11:38:31;26.00;52.50
28374;DHT22;15616;40.148;-102.718;2023-06-22T11:41:00;26.00;52.50
28374;DHT22;15616;40.148;-102.718;2023-06-22T11:43:25;26.00;52.60
28374;DHT22;15616;40.148;-102.718;2023-06-22T11:45:51;26.00;52.60
28374;DHT22;15616;40.148;-102.718;2023-06-22T11:48:17;26.00;52.60
28374;DHT22;15616;40.148;-102.718;2023-06-22T11:50:43;26.00;52.70
28374;DHT22;15616;40.148;-102.718;2023-06-22T11:53:08;26.00;52.70
28374;DHT22;15616;40.148;-102.718;2023-06-22T11:55:34;26.00;52.70
28374;DHT22;15616;40.148;-102.718;2023-06-22T11:58:00;26.00;52.70
28374;DHT22;15616;40.148;-102.718;2023-06-22T12:00:29;26.00;52.80
28374;DHT22;15616;40.148;-102.718;2023-06-22T12:02:55;26.00;52.80
28374;DHT22;15616;40.148;-102.718;2023-06-22T12:05:21;26.00;52.80
28374;DHT22;15616;40.148;-102.718;2023-06-22T12:07:47;26.00;52.80
28374;DHT22;15616;40.148;-102.718;2023-06-22T12:10:13;26.00;52.90
28374;DHT22;15616;40.148;-102.718;2023-06-22T12:12:39;26.00;52.90
28374;DHT22;15616;40.148;-102.718;2023-06-22T12:15:05;26.00;53.00
28374;DHT22;15616;40.148;-102.718;2023-06-22T12:17:31;26.00;53.00
28374;DHT22;15616;40.148;-102.718;2023-06-22T12:19:57;26.00;53.00
28374;DHT22;15616;40.148;-102.718;2023-06-22T12:22:22;26.00;53.00
28374;DHT22;15616;40.148;-102.718;2023-06-22T12:24:48;26.00;52.90
28374;DHT22;15616;40.148;-102.718;2023-06-22T12:27:14;26.00;52.90
28374;DHT22;15616;40.148;-102.718;2023-06-22T12:29:41;26.00;53.00
28374;DHT22;15616;40.148;-102.718;2023-06-22T12:32:07;26.00;53.00
28374;DHT22;15616;40.148;-102.718;2023-06-22T12:34:33;26.00;53.00
28374;DHT22;15616;40.148;-102.718;2023-06-22T12:36:58;26.00;53.10
28374;DHT22;15616;40.148;-102.718;2023-06-22T12:39:24;26.00;53.10
28374;DHT22;15616;40.148;-102.718;2023-06-22T12:41:50;26.00;53.20
28374;DHT22;15616;40.148;-102.718;2023-06-22T12:44:16;26.00;53.10
28374;DHT22;15616;40.148;-102.718;2023-06-22T12:46:42;26.00;53.10
28374;DHT22;15616;40.148;-102.718;2023-06-22T12:49:08;26.00;53.10
28374;DHT22;15616;40.148;-102.718;2023-06-22T12:51:39;26.00;53.10
28374;DHT22;15616;40.148;-102.718;2023-06-22T12:54:04;26.00;53.10
28374;DHT22;15616;40.148;-102.718;2023-06-22T12:56:30;26.00;53.10
28374;DHT22;15616;40.148;-102.718;2023-06-22T12:58:56;26.00;53.10
28374;DHT22;15616;40.148;-102.718;2023-06-22T13:01:22;26.00;53.20
28374;DHT22;15616;40.148;-102.718;2023-06-22T13:03:48;26.00;53.20
28374;DHT22;15616;40.148;-102.718;2023-06-22T13:06:14;26.00;53.20
28374;DHT22;15616;40.148;-102.718;2023-06-22T13:08:39;26.00;53.20
28374;DHT22;15616;40.148;-102.718;2023-06-22T13:11:05;26.00;53.20
28374;DHT22;15616;40.148;-102.718;2023-06-22T13:13:31;26.00;53.20
28374;DHT22;15616;40.148;-102.718;2023-06-22T13:15:57;26.00;53.30
28374;DHT22;15616;40.148;-102.718;2023-06-22T13:18:22;26.00;53.30
28374;DHT22;15616;40.148;-102.718;2023-06-22T13:20:48;26.00;53.20
28374;DHT22;15616;40.148;-102.718;2023-06-22T13:23:14;26.00;53.20
28374;DHT22;15616;40.148;-102.718;2023-06-22T13:25:39;26.00;53.20
28374;DHT22;15616;40.148;-102.718;2023-06-22T13:28:05;26.00;53.20
28374;DHT22;15616;40.148;-102.718;2023-06-22T13:30:31;26.00;53.20
28374;DHT22;15616;40.148;-102.718;2023-06-22T13:32:57;26.00;53.20
28374;DHT22;15616;40.148;-102.718;2023-06-22T13:35:23;26.00;53.30
28374;DHT22;15616;40.148;-102.718;2023-06-22T13:37:48;26.00;53.20
28374;DHT22;15616;40.148;-102.718;2023-06-22T13:40:14;26.00;53.20
28374;DHT22;15616;40.148;-102.718;2023-06-22T13:42:40;26.00;53.30
28374;DHT22;15616;40.148;-102.718;2023-06-22T13:45:06;26.00;53.20
28374;DHT22;15616;40.148;-102.718;2023-06-22T13:47:32;26.10;53.30
28374;DHT22;15616;40.148;-102.718;2023-06-22T13:49:58;26.10;53.30
28374;DHT22;15616;40.148;-102.718;2023-06-22T13:52:24;26.00;53.20
28374;DHT22;15616;40.148;-102.718;2023-06-22T13:54:50;26.00;53.30
28374;DHT22;15616;40.148;-102.718;2023-06-22T13:57:15;26.00;53.30
28374;DHT22;15616;40.148;-102.718;2023-06-22T13:59:41;26.00;53.30
28374;DHT22;15616;40.148;-102.718;2023-06-22T14:02:07;26.00;53.20
28374;DHT22;15616;40.148;-102.718;2023-06-22T14:04:33;26.10;53.30
28374;DHT22;15616;40.148;-102.718;2023-06-22T14:07:00;26.00;53.20
28374;DHT22;15616;40.148;-102.718;2023-06-22T14:09:26;26.00;53.30
28374;DHT22;15616;40.148;-102.718;2023-06-22T14:11:53;26.00;53.30
28374;DHT22;15616;40.148;-102.718;2023-06-22T14:14:19;26.00;53.30
28374;DHT22;15616;40.148;-102.718;2023-06-22T14:16:44;26.00;53.30
28374;DHT22;15616;40.148;-102.718;2023-06-22T14:19:10;26.00;53.30
28374;DHT22;15616;40.148;-102.718;2023-06-22T14:21:36;26.00;53.40
28374;DHT22;15616;40.148;-102.718;2023-06-22T14:24:02;26.00;53.40
28374;DHT22;15616;40.148;-102.718;2023-06-22T14:26:27;26.00;53.50
28374;DHT22;15616;40.148;-102.718;2023-06-22T14:28:53;26.00;53.50
28374;DHT22;15616;40.148;-102.718;2023-06-22T14:31:19;26.00;53.50
28374;DHT22;15616;40.148;-102.718;2023-06-22T14:33:45;26.00;53.50
28374;DHT22;15616;40.148;-102.718;2023-06-22T14:36:11;26.00;53.50
28374;DHT22;15616;40.148;-102.718;2023-06-22T14:38:37;26.00;53.40
28374;DHT22;15616;40.148;-102.718;2023-06-22T14:41:03;26.00;53.50
28374;DHT22;15616;40.148;-102.718;2023-06-22T14:43:29;26.00;53.50
28374;DHT22;15616;40.148;-102.718;2023-06-22T14:45:54;25.90;53.40
28374;DHT22;15616;40.148;-102.718;2023-06-22T14:48:20;26.00;53.50